Time;durP1;ratioP1;P1;durP2;ratioP2;P2;SDS_P1;SDS_P2;PMS_P1;PMS_P2;Temp;Humidity;BMP_temperature;BMP_pressure;BME280_temperature;BME280_humidity;BME280_pressure;Samples;Min_cycle;Max_cycle;Signal;HPM_P1;HPM_P2
2022/01/30 00:04:29;;;;;;;8.82;1.65;;;;;;;;;;10431453;28;20906;-76
2022/01/30 00:09:30;;;;;;;10.05;1.98;;;;;;;;;;10432797;28;20194;-77
2022/01/30 00:14:35;;;;;;;12.75;1.55;;;;;;;;;;10421742;28;20221;-75
2022/01/30 00:19:42;;;;;;;9.98;0.90;;;;;;;;;;10430307;28;20199;-77
2022/01/30 00:24:57;;;;;;;9.07;1.75;;;;;;;;;;10433071;28;20198;-76
2022/01/30 00:29:58;;;;;;;13.60;1.50;;;;;;;;;;10433730;28;20201;-76
2022/01/30 00:35:00;;;;;;;7.55;1.30;;;;;;;;;;10414216;28;20218;-76
2022/01/30 00:40:01;;;;;;;12.75;1.30;;;;;;;;;;10432405;28;20194;-76
2022/01/30 00:45:02;;;;;;;11.90;2.10;;;;;;;;;;10430619;28;20226;-77
2022/01/30 00:50:04;;;;;;;12.65;2.13;;;;;;;;;;10415061;28;20190;-77
2022/01/30 00:55:05;;;;;;;10.98;1.90;;;;;;;;;;10417195;28;20738;-77
2022/01/30 01:00:08;;;;;;;7.45;1.50;;;;;;;;;;10431074;28;20288;-77
2022/01/30 01:05:09;;;;;;;13.25;2.35;;;;;;;;;;10398006;28;20206;-80
2022/01/30 01:10:18;;;;;;;14.18;2.08;;;;;;;;;;10416508;28;20205;-80
2022/01/30 01:26:00;;;;;;;11.15;1.52;;;;;;;;;;10436080;28;20194;-77
2022/01/30 01:31:02;;;;;;;12.68;1.45;;;;;;;;;;10432878;28;20230;-76
2022/01/30 01:36:03;;;;;;;13.90;2.08;;;;;;;;;;10419204;28;20214;-76
2022/01/30 01:41:05;;;;;;;12.35;1.92;;;;;;;;;;10436624;28;20194;-76
2022/01/30 01:46:14;;;;;;;14.68;2.47;;;;;;;;;;10435405;28;20261;-77
2022/01/30 01:51:18;;;;;;;16.55;2.10;;;;;;;;;;10433463;28;20248;-78
2022/01/30 01:56:20;;;;;;;12.13;2.00;;;;;;;;;;10423544;28;21858;-77
2022/01/30 02:01:28;;;;;;;11.07;2.42;;;;;;;;;;10418445;28;20207;-77
2022/01/30 02:06:29;;;;;;;14.13;2.08;;;;;;;;;;10415061;28;20205;-77
2022/01/30 02:11:41;;;;;;;13.43;1.98;;;;;;;;;;10411377;28;20186;-76
2022/01/30 02:27:36;;;;;;;14.70;2.60;;;;;;;;;;10437062;28;20687;-76
2022/01/30 02:32:38;;;;;;;11.00;1.98;;;;;;;;;;10416459;28;20268;-76
2022/01/30 02:37:39;;;;;;;9.77;1.65;;;;;;;;;;10423496;28;20221;-78
2022/01/30 02:42:46;;;;;;;10.32;2.10;;;;;;;;;;10434807;28;20265;-78
2022/01/30 02:52:57;;;;;;;16.67;2.58;;;;;;;;;;10381675;28;20211;-78
2022/01/30 02:57:58;;;;;;;15.98;2.45;;;;;;;;;;10398881;28;20191;-76
2022/01/30 03:02:59;;;;;;;12.13;1.88;;;;;;;;;;10389368;28;20991;-77
2022/01/30 03:08:01;;;;;;;15.10;1.80;;;;;;;;;;10405116;28;20215;-77
2022/01/30 03:13:02;;;;;;;11.07;2.38;;;;;;;;;;10390400;28;20742;-78
2022/01/30 03:18:03;;;;;;;20.30;2.45;;;;;;;;;;10388177;28;20195;-79
2022/01/30 03:23:14;;;;;;;11.73;1.83;;;;;;;;;;10393282;28;20187;-78
2022/01/30 03:28:15;;;;;;;17.08;2.47;;;;;;;;;;10407497;28;20652;-78
2022/01/30 03:33:18;;;;;;;18.88;1.48;;;;;;;;;;10389263;28;20245;-78
2022/01/30 03:38:20;;;;;;;12.05;1.67;;;;;;;;;;10402801;28;20188;-78
2022/01/30 03:43:21;;;;;;;21.42;2.80;;;;;;;;;;10405050;28;20885;-76
2022/01/30 03:48:22;;;;;;;14.25;1.77;;;;;;;;;;10427064;28;20198;-77
2022/01/30 03:53:43;;;;;;;4.95;1.30;;;;;;;;;;10431293;28;20288;-78
2022/01/30 03:58:44;;;;;;;9.02;1.33;;;;;;;;;;10443207;28;20198;-76
2022/01/30 04:03:48;;;;;;;13.10;1.40;;;;;;;;;;10429431;28;20354;-77
2022/01/30 04:08:50;;;;;;;9.32;1.92;;;;;;;;;;10432178;28;20205;-77
2022/01/30 04:14:09;;;;;;;10.43;2.15;;;;;;;;;;10425589;28;20241;-78
2022/01/30 04:19:30;;;;;;;11.98;2.00;;;;;;;;;;10442534;28;20278;-77
2022/01/30 04:24:56;;;;;;;12.85;2.03;;;;;;;;;;10427494;28;20199;-76
2022/01/30 04:30:33;;;;;;;15.95;2.33;;;;;;;;;;10422167;28;20219;-76
2022/01/30 04:35:38;;;;;;;8.43;2.25;;;;;;;;;;10441223;28;20871;-76
2022/01/30 04:58:18;;;;;;;12.63;2.53;;;;;;;;;;10268885;28;20212;-76
2022/01/30 05:08:48;;;;;;;13.77;2.05;;;;;;;;;;10275292;28;20209;-76
2022/01/30 05:14:03;;;;;;;15.70;1.98;;;;;;;;;;10274102;28;20224;-76
2022/01/30 05:19:20;;;;;;;13.52;1.88;;;;;;;;;;10435666;28;20332;-76
2022/01/30 05:24:41;;;;;;;12.95;3.22;;;;;;;;;;10438200;28;20214;-75
2022/01/30 05:29:55;;;;;;;10.82;2.20;;;;;;;;;;10438232;28;20674;-75
2022/01/30 05:35:15;;;;;;;10.23;1.95;;;;;;;;;;10441300;28;20822;-74
2022/01/30 05:40:26;;;;;;;10.60;1.75;;;;;;;;;;10437148;28;20225;-78
2022/01/30 05:45:52;;;;;;;18.17;2.00;;;;;;;;;;10437605;28;20675;-75
2022/01/30 05:51:21;;;;;;;20.05;3.10;;;;;;;;;;10427313;28;20901;-75
2022/01/30 05:56:27;;;;;;;25.17;2.88;;;;;;;;;;10421112;28;20688;-75
2022/01/30 06:01:35;;;;;;;12.55;2.83;;;;;;;;;;10422311;28;20217;-75
2022/01/30 06:06:51;;;;;;;20.38;3.70;;;;;;;;;;10424145;28;21196;-76
2022/01/30 06:11:54;;;;;;;20.52;3.20;;;;;;;;;;10432134;28;20187;-77
2022/01/30 06:16:58;;;;;;;21.15;2.65;;;;;;;;;;10417180;28;20745;-75
2022/01/30 06:22:22;;;;;;;16.98;2.72;;;;;;;;;;10423529;28;20203;-76
2022/01/30 06:27:41;;;;;;;23.70;3.22;;;;;;;;;;10428598;28;20198;-76
2022/01/30 06:33:01;;;;;;;11.60;2.70;;;;;;;;;;10423110;28;20218;-76
2022/01/30 06:38:22;;;;;;;17.50;3.03;;;;;;;;;;10458474;28;20193;-77
2022/01/30 06:43:56;;;;;;;21.23;3.40;;;;;;;;;;10455016;28;20742;-76
2022/01/30 06:49:36;;;;;;;19.60;3.13;;;;;;;;;;10351060;28;20199;-78
2022/01/30 06:54:49;;;;;;;17.80;3.30;;;;;;;;;;10433770;28;20333;-76
2022/01/30 07:00:09;;;;;;;16.02;3.03;;;;;;;;;;10473262;28;20193;-76
2022/01/30 07:05:29;;;;;;;13.45;3.05;;;;;;;;;;10475657;28;20209;-80
2022/01/30 07:10:41;;;;;;;10.55;2.55;;;;;;;;;;10479222;28;20691;-79
2022/01/30 07:15:42;;;;;;;19.67;3.60;;;;;;;;;;10476340;28;20205;-80
2022/01/30 07:20:44;;;;;;;16.98;3.40;;;;;;;;;;10466793;28;20197;-81
2022/01/30 07:25:45;;;;;;;19.35;3.83;;;;;;;;;;10478658;28;20200;-79
2022/01/30 07:30:46;;;;;;;17.27;3.78;;;;;;;;;;10478580;28;20209;-80
2022/01/30 07:35:50;;;;;;;18.05;2.95;;;;;;;;;;10447262;28;20193;-80
2022/01/30 07:40:51;;;;;;;19.13;2.80;;;;;;;;;;10485944;28;20233;-79
2022/01/30 07:45:52;;;;;;;15.75;4.72;;;;;;;;;;10466429;28;20262;-78
2022/01/30 07:50:53;;;;;;;20.33;3.25;;;;;;;;;;10466816;28;20201;-80
2022/01/30 07:55:54;;;;;;;14.82;2.72;;;;;;;;;;10484459;28;20206;-80
2022/01/30 08:00:55;;;;;;;13.55;3.17;;;;;;;;;;10468832;28;20217;-78
2022/01/30 08:05:57;;;;;;;22.13;3.22;;;;;;;;;;10475283;28;20206;-77
2022/01/30 08:10:58;;;;;;;17.13;2.97;;;;;;;;;;10463217;28;20193;-77
2022/01/30 08:15:59;;;;;;;21.80;2.72;;;;;;;;;;10481363;28;20209;-78
2022/01/30 08:21:00;;;;;;;21.42;3.42;;;;;;;;;;10448973;28;20586;-78
2022/01/30 08:26:02;;;;;;;21.10;3.63;;;;;;;;;;10474903;28;20201;-80
2022/01/30 08:31:03;;;;;;;19.65;3.45;;;;;;;;;;10491830;28;20213;-78
2022/01/30 08:36:04;;;;;;;17.90;3.30;;;;;;;;;;10483817;28;20289;-77
2022/01/30 08:41:05;;;;;;;13.13;2.55;;;;;;;;;;10477690;28;20194;-78
2022/01/30 08:46:06;;;;;;;19.65;3.58;;;;;;;;;;10476769;28;20245;-79
2022/01/30 08:51:07;;;;;;;25.42;3.47;;;;;;;;;;10478436;28;20239;-80
2022/01/30 08:56:08;;;;;;;15.55;3.33;;;;;;;;;;10447077;28;20226;-78
2022/01/30 09:01:12;;;;;;;28.33;3.22;;;;;;;;;;10473769;28;20212;-78
2022/01/30 09:06:13;;;;;;;18.05;2.97;;;;;;;;;;10468053;28;20205;-78
2022/01/30 09:11:14;;;;;;;15.38;3.15;;;;;;;;;;10479013;28;20261;-78
2022/01/30 09:16:15;;;;;;;14.90;2.97;;;;;;;;;;10444778;28;20625;-78
2022/01/30 09:21:16;;;;;;;22.70;3.83;;;;;;;;;;10464936;28;20198;-79
2022/01/30 09:26:17;;;;;;;20.85;3.10;;;;;;;;;;10465547;28;20701;-79
2022/01/30 09:31:19;;;;;;;12.18;3.40;;;;;;;;;;10485033;28;21011;-79
2022/01/30 09:36:20;;;;;;;17.13;2.67;;;;;;;;;;10483430;28;20210;-78
2022/01/30 09:41:23;;;;;;;14.93;2.20;;;;;;;;;;10487358;28;20213;-78
2022/01/30 09:46:25;;;;;;;15.68;2.88;;;;;;;;;;10492209;28;20797;-76
2022/01/30 09:51:26;;;;;;;19.48;2.95;;;;;;;;;;10483500;28;20231;-79
2022/01/30 09:56:28;;;;;;;19.90;2.70;;;;;;;;;;10480038;28;20206;-77
2022/01/30 10:01:33;;;;;;;18.27;2.85;;;;;;;;;;10477776;28;20750;-77
2022/01/30 10:06:50;;;;;;;16.85;2.80;;;;;;;;;;10459163;28;20212;-79
2022/01/30 10:12:08;;;;;;;20.75;3.70;;;;;;;;;;10483069;28;20230;-78
2022/01/30 10:17:09;;;;;;;19.33;3.20;;;;;;;;;;10476906;28;20204;-77
2022/01/30 10:22:11;;;;;;;15.85;3.22;;;;;;;;;;10460098;28;20276;-81
2022/01/30 10:27:26;;;;;;;21.17;3.65;;;;;;;;;;10479659;28;20224;-79
2022/01/30 10:32:28;;;;;;;18.95;3.55;;;;;;;;;;10479981;28;20231;-78
2022/01/30 10:37:29;;;;;;;23.70;3.28;;;;;;;;;;10469519;28;20196;-80
2022/01/30 10:42:31;;;;;;;16.48;3.17;;;;;;;;;;10465226;28;20309;-80
2022/01/30 10:47:32;;;;;;;12.52;3.92;;;;;;;;;;10451138;28;20202;-77
2022/01/30 10:52:34;;;;;;;12.50;3.17;;;;;;;;;;10451183;28;20341;-79
2022/01/30 10:57:41;;;;;;;19.13;3.10;;;;;;;;;;10442404;28;20195;-80
2022/01/30 11:02:42;;;;;;;18.42;3.53;;;;;;;;;;10449011;28;20217;-79
2022/01/30 11:07:44;;;;;;;18.95;3.35;;;;;;;;;;10415693;28;21296;-77
2022/01/30 11:12:56;;;;;;;31.90;3.42;;;;;;;;;;10431154;28;20333;-79
2022/01/30 11:17:59;;;;;;;29.63;4.28;;;;;;;;;;10448021;28;20244;-79
2022/01/30 11:23:02;;;;;;;19.85;4.32;;;;;;;;;;10451388;28;20321;-80
2022/01/30 11:28:04;;;;;;;27.20;3.85;;;;;;;;;;10424317;28;20206;-77
2022/01/30 11:33:06;;;;;;;27.05;4.13;;;;;;;;;;10447930;28;20764;-78
2022/01/30 11:38:07;;;;;;;22.50;4.15;;;;;;;;;;10455306;28;20209;-79
2022/01/30 11:43:09;;;;;;;18.75;4.10;;;;;;;;;;10454716;28;20214;-77
2022/01/30 11:48:15;;;;;;;21.48;3.85;;;;;;;;;;10452198;28;21012;-78
2022/01/30 11:53:29;;;;;;;17.83;4.50;;;;;;;;;;10431306;28;20705;-79
2022/01/30 11:58:30;;;;;;;23.15;4.55;;;;;;;;;;10446331;28;20221;-80
2022/01/30 12:03:32;;;;;;;25.73;4.13;;;;;;;;;;10446661;28;20314;-78
2022/01/30 12:08:44;;;;;;;21.45;4.22;;;;;;;;;;10445218;28;20202;-78
2022/01/30 12:13:45;;;;;;;19.92;3.75;;;;;;;;;;10463609;28;20206;-77
2022/01/30 12:18:47;;;;;;;25.55;4.20;;;;;;;;;;10423838;28;20195;-77
2022/01/30 12:23:48;;;;;;;20.17;3.88;;;;;;;;;;10446521;28;20187;-79
2022/01/30 12:28:51;;;;;;;21.65;4.00;;;;;;;;;;10428784;28;20205;-78
2022/01/30 12:33:59;;;;;;;24.50;4.45;;;;;;;;;;10452093;28;20229;-79
2022/01/30 12:39:02;;;;;;;23.08;4.50;;;;;;;;;;10451398;28;20194;-78
2022/01/30 12:44:14;;;;;;;23.25;3.95;;;;;;;;;;10441108;28;20225;-77
2022/01/30 12:49:16;;;;;;;28.17;4.57;;;;;;;;;;10464255;28;20205;-77
2022/01/30 12:54:19;;;;;;;27.27;5.45;;;;;;;;;;10487189;28;20206;-78
2022/01/30 12:59:23;;;;;;;22.17;4.35;;;;;;;;;;10496615;28;20208;-78
2022/01/30 13:04:28;;;;;;;19.73;4.63;;;;;;;;;;10496939;28;20210;-79
2022/01/30 13:09:33;;;;;;;26.33;4.13;;;;;;;;;;10495399;28;20189;-79
2022/01/30 13:14:37;;;;;;;32.63;5.05;;;;;;;;;;10478214;28;20267;-78
2022/01/30 13:19:40;;;;;;;20.33;3.67;;;;;;;;;;10496595;28;20197;-78
2022/01/30 13:24:52;;;;;;;19.50;3.67;;;;;;;;;;10496837;28;20305;-80
2022/01/30 13:29:54;;;;;;;21.25;4.10;;;;;;;;;;10493786;28;20284;-80
2022/01/30 13:34:59;;;;;;;21.00;4.07;;;;;;;;;;10481015;28;20225;-80
2022/01/30 13:40:12;;;;;;;22.63;4.30;;;;;;;;;;10488652;28;20268;-80
2022/01/30 13:50:21;;;;;;;27.48;4.30;;;;;;;;;;10445241;28;20320;-80
2022/01/30 13:55:22;;;;;;;26.85;4.60;;;;;;;;;;10443358;28;20212;-80
2022/01/30 14:00:23;;;;;;;27.42;4.30;;;;;;;;;;10426180;28;20199;-80
2022/01/30 14:05:38;;;;;;;17.33;3.25;;;;;;;;;;10445195;28;20198;-78
2022/01/30 14:10:40;;;;;;;27.63;4.63;;;;;;;;;;10430461;28;20197;-80
2022/01/30 14:15:41;;;;;;;20.73;3.47;;;;;;;;;;10427037;28;20305;-77
2022/01/30 14:20:43;;;;;;;22.20;3.92;;;;;;;;;;10449865;28;20194;-79
2022/01/30 14:25:45;;;;;;;33.65;4.68;;;;;;;;;;10450541;28;20195;-78
2022/01/30 14:30:46;;;;;;;24.80;3.58;;;;;;;;;;10446809;28;20234;-82
2022/01/30 14:35:49;;;;;;;21.88;4.18;;;;;;;;;;10451236;28;20293;-78
2022/01/30 14:40:53;;;;;;;23.08;5.20;;;;;;;;;;10448180;28;20186;-78
2022/01/30 14:45:54;;;;;;;22.13;3.95;;;;;;;;;;10441757;28;20226;-78
2022/01/30 14:50:55;;;;;;;20.30;3.90;;;;;;;;;;10460522;28;20636;-80
2022/01/30 14:55:57;;;;;;;23.02;5.60;;;;;;;;;;10451216;28;20219;-78
2022/01/30 15:00:59;;;;;;;17.65;3.95;;;;;;;;;;10454796;28;20313;-80
2022/01/30 15:06:01;;;;;;;25.83;5.07;;;;;;;;;;10456925;28;20191;-79
2022/01/30 15:11:02;;;;;;;17.90;3.25;;;;;;;;;;10437433;28;20191;-79
2022/01/30 15:16:09;;;;;;;28.05;3.67;;;;;;;;;;10452795;28;20222;-79
2022/01/30 15:21:10;;;;;;;21.23;3.50;;;;;;;;;;10448472;28;20194;-80
2022/01/30 15:26:11;;;;;;;23.92;4.03;;;;;;;;;;10447097;28;20275;-78
2022/01/30 15:31:12;;;;;;;22.80;3.58;;;;;;;;;;10445370;28;20214;-79
2022/01/30 15:36:13;;;;;;;31.63;3.80;;;;;;;;;;10451747;28;20215;-78
2022/01/30 15:41:15;;;;;;;22.83;4.63;;;;;;;;;;10454120;28;20187;-79
2022/01/30 15:51:39;;;;;;;12.00;2.88;;;;;;;;;;10438371;28;20228;-79
2022/01/30 15:56:41;;;;;;;10.77;2.40;;;;;;;;;;10448488;28;20210;-79
2022/01/30 16:01:42;;;;;;;20.13;3.45;;;;;;;;;;10425159;28;20296;-81
2022/01/30 16:06:44;;;;;;;19.42;3.83;;;;;;;;;;10464250;28;20193;-79
2022/01/30 16:16:47;;;;;;;15.45;2.67;;;;;;;;;;10508571;28;20236;-78
2022/01/30 16:21:48;;;;;;;16.70;2.92;;;;;;;;;;10506076;28;20197;-77
2022/01/30 16:26:49;;;;;;;23.58;3.33;;;;;;;;;;10465690;28;20232;-76
2022/01/30 16:31:50;;;;;;;29.13;3.33;;;;;;;;;;10487359;28;20307;-77
2022/01/30 16:36:51;;;;;;;18.92;3.63;;;;;;;;;;10487722;28;20209;-76
2022/01/30 16:41:53;;;;;;;18.65;3.35;;;;;;;;;;10486126;28;20225;-77
2022/01/30 16:51:58;;;;;;;33.80;8.90;;;;;;;;;;10483341;28;20436;-77
2022/01/30 16:56:59;;;;;;;21.95;4.32;;;;;;;;;;10489273;28;20287;-76
2022/01/30 17:02:00;;;;;;;17.30;4.55;;;;;;;;;;10485466;28;20209;-76
2022/01/30 17:07:01;;;;;;;18.15;3.42;;;;;;;;;;10483512;28;20193;-77
2022/01/30 17:12:06;;;;;;;19.30;3.72;;;;;;;;;;10485769;28;20259;-75
2022/01/30 17:17:07;;;;;;;20.92;3.72;;;;;;;;;;10484305;28;20217;-77
2022/01/30 17:22:08;;;;;;;22.50;3.65;;;;;;;;;;10469456;28;20188;-77
2022/01/30 17:27:09;;;;;;;19.48;3.08;;;;;;;;;;10483223;28;20201;-77
2022/01/30 17:32:11;;;;;;;15.68;3.58;;;;;;;;;;10482768;28;20209;-77
2022/01/30 17:37:14;;;;;;;14.88;2.22;;;;;;;;;;10442839;28;20198;-77
2022/01/30 17:42:15;;;;;;;15.63;2.58;;;;;;;;;;10458813;28;20220;-77
2022/01/30 17:47:16;;;;;;;14.40;2.30;;;;;;;;;;10478508;28;20189;-77
2022/01/30 17:52:18;;;;;;;14.65;2.78;;;;;;;;;;10476951;28;20252;-77
2022/01/30 17:57:19;;;;;;;14.70;2.15;;;;;;;;;;10475095;28;20195;-77
2022/01/30 18:02:20;;;;;;;22.17;2.92;;;;;;;;;;10474015;28;20209;-77
2022/01/30 18:07:27;;;;;;;17.75;2.03;;;;;;;;;;10472240;28;20202;-77
2022/01/30 18:12:29;;;;;;;12.43;2.40;;;;;;;;;;10480303;28;20194;-77
2022/01/30 18:17:30;;;;;;;18.52;2.88;;;;;;;;;;10480323;28;20221;-77
2022/01/30 18:22:31;;;;;;;16.67;3.17;;;;;;;;;;10481348;28;20194;-76
2022/01/30 18:27:33;;;;;;;15.68;3.53;;;;;;;;;;10482092;28;20277;-76
2022/01/30 18:32:34;;;;;;;17.55;2.90;;;;;;;;;;10479298;28;20218;-78
2022/01/30 18:37:41;;;;;;;18.98;3.10;;;;;;;;;;10489237;28;20186;-77
2022/01/30 18:42:42;;;;;;;20.42;2.30;;;;;;;;;;10486196;28;20241;-77
2022/01/30 18:47:43;;;;;;;19.90;2.95;;;;;;;;;;10485236;28;20193;-77
2022/01/30 18:52:45;;;;;;;21.80;3.63;;;;;;;;;;10489257;28;20212;-77
2022/01/30 18:57:46;;;;;;;19.75;4.15;;;;;;;;;;10488374;28;20289;-78
2022/01/30 19:02:47;;;;;;;17.63;2.90;;;;;;;;;;10485601;28;20214;-77
2022/01/30 19:07:49;;;;;;;27.15;4.53;;;;;;;;;;10496391;28;20221;-76
2022/01/30 19:12:50;;;;;;;15.50;3.28;;;;;;;;;;10485758;28;20217;-77
2022/01/30 19:17:51;;;;;;;12.82;3.15;;;;;;;;;;10476530;28;20230;-77
2022/01/30 19:22:52;;;;;;;22.77;4.13;;;;;;;;;;10479307;28;20312;-77
2022/01/30 19:27:53;;;;;;;17.20;3.47;;;;;;;;;;10483757;28;20198;-77
2022/01/30 19:32:54;;;;;;;19.73;2.97;;;;;;;;;;10478462;28;20210;-78
2022/01/30 19:37:56;;;;;;;17.27;3.05;;;;;;;;;;10484850;28;20182;-77
2022/01/30 19:42:58;;;;;;;11.65;2.67;;;;;;;;;;10479413;28;20225;-77
2022/01/30 19:48:01;;;;;;;23.38;3.38;;;;;;;;;;10442279;28;20302;-78
2022/01/30 19:53:03;;;;;;;25.42;4.35;;;;;;;;;;10442737;28;20207;-78
2022/01/30 19:58:05;;;;;;;26.98;3.35;;;;;;;;;;10423495;28;20187;-77
2022/01/30 20:03:06;;;;;;;18.33;2.80;;;;;;;;;;10447176;28;20214;-78
2022/01/30 20:08:07;;;;;;;20.92;2.72;;;;;;;;;;10442022;28;20285;-78
2022/01/30 20:13:09;;;;;;;15.07;2.22;;;;;;;;;;10440043;28;20214;-77
2022/01/30 20:18:10;;;;;;;23.00;3.20;;;;;;;;;;10441125;28;20196;-77
2022/01/30 20:23:13;;;;;;;14.95;2.17;;;;;;;;;;10445117;28;20220;-76
2022/01/30 20:28:14;;;;;;;18.17;2.47;;;;;;;;;;10447063;28;20898;-76
2022/01/30 20:33:15;;;;;;;16.70;2.80;;;;;;;;;;10444755;28;20305;-76
2022/01/30 20:38:16;;;;;;;14.05;2.90;;;;;;;;;;10438736;28;20191;-76
2022/01/30 20:43:17;;;;;;;15.10;2.40;;;;;;;;;;10433288;28;20244;-75
2022/01/30 20:48:18;;;;;;;18.77;2.63;;;;;;;;;;10434812;28;20199;-76
2022/01/30 20:53:19;;;;;;;18.75;2.80;;;;;;;;;;10432190;28;20730;-77
2022/01/30 20:58:21;;;;;;;18.60;2.35;;;;;;;;;;10436720;28;20273;-75
2022/01/30 21:03:22;;;;;;;14.18;2.30;;;;;;;;;;10429808;28;20288;-79
2022/01/30 21:08:27;;;;;;;14.90;2.38;;;;;;;;;;10427258;28;20279;-79
2022/01/30 21:13:31;;;;;;;14.13;2.72;;;;;;;;;;10431895;28;20284;-77
2022/01/30 21:18:32;;;;;;;15.10;2.38;;;;;;;;;;10435295;28;20203;-76
2022/01/30 21:23:35;;;;;;;16.23;2.08;;;;;;;;;;10432820;28;20198;-78
2022/01/30 21:28:36;;;;;;;19.10;2.78;;;;;;;;;;10444057;28;20252;-76
2022/01/30 21:33:37;;;;;;;17.38;2.60;;;;;;;;;;10443155;28;20242;-77
2022/01/30 21:38:38;;;;;;;25.98;3.53;;;;;;;;;;10423959;28;20209;-78
2022/01/30 21:43:39;;;;;;;18.35;3.35;;;;;;;;;;10442260;28;20232;-79
2022/01/30 21:48:40;;;;;;;16.85;2.83;;;;;;;;;;10410446;28;20210;-78
2022/01/30 21:53:41;;;;;;;33.22;3.60;;;;;;;;;;10448526;28;20268;-78
2022/01/30 21:58:43;;;;;;;21.80;3.38;;;;;;;;;;10440095;28;20194;-77
2022/01/30 22:03:45;;;;;;;14.45;2.72;;;;;;;;;;10441817;28;20395;-76
2022/01/30 22:08:46;;;;;;;22.48;3.47;;;;;;;;;;10437893;28;20194;-79
2022/01/30 22:13:49;;;;;;;19.98;3.25;;;;;;;;;;10438800;28;20218;-76
2022/01/30 22:18:50;;;;;;;14.07;2.42;;;;;;;;;;10426034;28;20201;-75
2022/01/30 22:23:51;;;;;;;19.52;2.75;;;;;;;;;;10421979;28;20272;-77
2022/01/30 22:28:54;;;;;;;22.55;2.88;;;;;;;;;;10438331;28;20196;-77
2022/01/30 22:33:55;;;;;;;19.40;2.78;;;;;;;;;;10438412;28;20211;-78
2022/01/30 22:38:56;;;;;;;17.55;3.28;;;;;;;;;;10443331;28;20282;-77
2022/01/30 22:43:57;;;;;;;22.73;3.55;;;;;;;;;;10446300;28;20228;-77
2022/01/30 22:48:58;;;;;;;22.92;3.08;;;;;;;;;;10451742;28;20194;-77
2022/01/30 22:53:59;;;;;;;21.83;3.25;;;;;;;;;;10448842;28;20258;-78
2022/01/30 22:59:00;;;;;;;30.20;4.22;;;;;;;;;;10430562;28;20205;-77
2022/01/30 23:04:01;;;;;;;17.83;3.78;;;;;;;;;;10450675;28;20378;-78
2022/01/30 23:09:02;;;;;;;19.80;3.67;;;;;;;;;;10452106;28;20203;-78
2022/01/30 23:14:03;;;;;;;18.95;3.08;;;;;;;;;;10458853;28;20241;-78
2022/01/30 23:19:05;;;;;;;17.85;3.03;;;;;;;;;;10453507;28;20265;-77
2022/01/30 23:24:06;;;;;;;16.90;2.88;;;;;;;;;;10450662;28;20222;-78
2022/01/30 23:29:08;;;;;;;25.98;3.38;;;;;;;;;;10454061;28;20191;-76
2022/01/30 23:34:09;;;;;;;26.63;3.67;;;;;;;;;;10450639;28;20218;-76
2022/01/30 23:39:12;;;;;;;38.35;4.22;;;;;;;;;;10432132;28;20191;-76
2022/01/30 23:44:21;;;;;;;25.67;3.85;;;;;;;;;;10442015;28;20706;-76
2022/01/30 23:49:22;;;;;;;16.70;3.58;;;;;;;;;;10447117;28;21038;-78
2022/01/30 23:54:25;;;;;;;20.45;3.35;;;;;;;;;;10449149;28;20249;-77
2022/01/30 23:59:26;;;;;;;22.17;2.95;;;;;;;;;;10452700;28;20313;-76
